x

9444090 - Port Angeles, Wa (ptaw1) Weather Station

8:36 - Fri 3rd Jul 2015 All times are PDT. -7 hours from GMT.

  • Wind
    2mph, 3mph gusts
  • Sea Temp 53°f
  • Air Temp 61°f
  • Sea Pressure 1014.8mb
  • 9444090 - Port Angeles, Wa
  • 9444090 - Port Angeles, Wa

More Historic Weather Station data

Upgrade to MSW Pro to gain access to the past 30 days of data for over 8000 Wavebouys and Weather Stations around the globe.

Join Pro

Comparision Forecast

View Surf forecast
   
ven. 07/03 8:36 2 3 mph 1014.8mb 53f 61f
8:30 1 2 mph 1014.9mb 53f 59f
8:24 1 2 mph 1014.9mb 53f 61f
8:18 2 3 mph 1014.8mb 53f 61f
8:12 2 3 mph 1014.8mb 53f 61f
8:06 3
mph
1014.8mb 53f 61f
8:00 2 3 mph 1014.8mb 53f 61f
7:36 2 3 mph 1014.7mb 52f 60f
7:30 1 2 mph 1014.7mb 52f 61f
7:24 1 3 mph 1014.6mb 52f 63f
7:18 1 2 mph 1014.7mb 52f 63f
7:12 1 2 mph 1014.7mb 52f 62f
7:06  -  2 mph 1014.7mb 52f 62f
7:00 1 3 mph 1014.6mb 52f 60f
6:36 2 3 mph 1014.7mb 52f 59f
6:30 2 3 mph 1014.8mb 51f 60f
6:24 2 3 mph 1014.7mb 51f 59f
6:18 2
mph
1014.7mb 51f 59f
6:12 2
mph
1014.7mb 51f 58f
6:06 1 2 mph 1014.7mb 51f 58f
6:00 1 2 mph 1014.7mb 52f 57f
5:36 2 6 mph 1014.4mb 52f 57f
5:30 6
mph
1014.4mb 52f 57f
5:24 3 5 mph 1014.3mb 52f 57f
5:18 3 5 mph 1014.2mb 52f 58f
5:12 2 3 mph 1014.2mb 52f 58f
5:06 2 3 mph 1014.1mb 52f 58f
5:00 1 2 mph 1014.1mb 52f 57f
4:36  -  1 mph 1014.2mb 53f 57f
4:30  -  2 mph 1014.2mb 53f 57f
4:24 1 3 mph 1014.2mb 53f 57f
4:18 5 6 mph 1014.1mb 53f 57f
4:12 5
mph
1014.2mb 53f 58f
4:06 3 6 mph 1014.2mb 53f 58f
4:00 2 3 mph 1014.2mb 53f 58f
3:36 2
mph
1014.4mb 52f 58f
3:30 2 3 mph 1014.3mb 52f 58f
3:24 3
mph
1014.3mb 52f 58f
3:18 2 3 mph 1014.2mb 52f 58f
3:12 1 3 mph 1014.1mb 52f 59f
3:06 1 2 mph 1014mb 51f 59f
3:00  -  3 mph 1014mb 51f 59f
2:36 3 5 mph 1013.9mb 51f 60f
2:30 3
mph
1013.8mb 51f 60f
2:24 1 3 mph 1013.8mb 51f 60f
2:18 1 2 mph 1013.8mb 51f 60f
2:12 1 2 mph 1013.8mb 51f 60f
2:06 1 3 mph 1013.9mb 51f 59f
2:00  -  3 mph 1014mb 51f 59f
1:36 2 3 mph 1014.2mb 51f 59f
1:30 2 3 mph 1014mb 51f 59f
1:24 3 6 mph 1014mb 51f 59f
1:18  -  2 mph 1014mb 51f 59f
1:12 2 3 mph 1014mb 51f 59f
1:06 1 2 mph 1014mb 51f 59f
1:00  -  2 mph 1014mb 51f 60f
12:36 1 3 mph 1014.1mb 51f 60f
12:30 3 5 mph 1014.1mb 51f 59f
12:24 5 6 mph 1014.1mb 51f 59f
12:18 3 7 mph 1014.1mb 51f 60f
12:12 5 6 mph 1014.1mb 51f 60f
12:06 6 7 mph 1014.1mb 51f 60f
12:00 6 7 mph 1014.1mb 51f 60f
jeu. 07/02 11:36 9 10 mph 1014mb 51f 60f
11:30 6 8 mph 1014mb 51f 60f
11:24 7 8 mph 1014mb 51f 60f
11:18 6 8 mph 1014mb 51f 61f
11:12 5 7 mph 1014mb 51f 61f
11:06 7 10 mph 1014.1mb 51f 61f
11:00 7 11 mph 1014.1mb 51f 62f
10:36 6 8 mph 1014.1mb 52f 60f
10:30 5 6 mph 1014mb 52f 61f
10:24 5 7 mph 1014.1mb 52f 61f
10:18 6 8 mph 1014.2mb 52f 61f
10:12 5 7 mph 1014.2mb 53f 62f
10:06 2 5 mph 1014.2mb 53f 62f
10:00 3 5 mph 1014.2mb 53f 62f
9:36 7 9 mph 1014.1mb 53f 61f
9:30 6 8 mph 1014.1mb 53f 62f
9:24 8 9 mph 1014mb 53f 62f
9:18 8 11 mph 1014mb 53f 63f
9:12 7 10 mph 1014mb 54f 62f
9:06 7 9 mph 1014mb 54f 62f
9:00 8 13 mph 1014mb 54f 63f
8:36 14 15 mph 1013.9mb 55f 65f
8:30 13 15 mph 1014mb 55f 64f
8:24 11 15 mph 1014mb 55f 64f
8:18 14 15 mph 1014mb 55f 64f
8:12 9 11 mph 1014mb 55f 64f
8:06 11 15 mph 1014.1mb 55f 64f
8:00 14 17 mph 1014.1mb 55f 66f
7:36 14 16 mph 1014.1mb 55f 67f
7:30 15 16 mph 1014.1mb 55f 67f
7:24 15 17 mph 1014.1mb 55f 68f
7:18 14 16 mph 1014.1mb 55f 68f
7:12 15 17 mph 1014.1mb 55f 67f
7:06 16 18 mph 1014.2mb 55f 68f
7:00 16 18 mph 1014.2mb 55f 67f
6:36 17 18 mph 1014.4mb 55f 71f
6:30 15 17 mph 1014.5mb 55f 70f
6:24 14 15 mph 1014.6mb 55f 71f
6:18 11 15 mph 1014.7mb 53f 69f
6:12 10 14 mph 1014.7mb 53f 69f
6:06 13 15 mph 1014.9mb 52f 69f
6:00 14 16 mph 1014.9mb 52f 70f
5:36 13 17 mph 1015mb 52f 70f
5:30 15 17 mph 1015.1mb 52f 70f
5:24 16 18 mph 1015.1mb 52f 69f
5:18 17 18 mph 1015.1mb 52f 69f
5:12 17 18 mph 1015.1mb 52f 69f
5:06 17 21 mph 1015.2mb 52f 68f
5:00 18 21 mph 1015.2mb 52f 69f
4:36 16 20 mph 1015.4mb 52f 69f
4:30 18 21 mph 1015.4mb 52f 69f
4:24 17 21 mph 1015.4mb 52f 70f
4:18 16 18 mph 1015.4mb 52f 69f
4:12 13 15 mph 1015.4mb 52f 70f
4:06 10 11 mph 1015.4mb 53f 68f
4:00 10 11 mph 1015.4mb 53f 67f
3:36 7 9 mph 1015.6mb 53f 69f
3:30 5 7 mph 1015.7mb 53f 69f
3:24 5 6 mph 1015.7mb 53f 71f
3:18 2
mph
1015.8mb 53f 69f
3:12 2 3 mph 1015.8mb 53f 71f
3:06 2 3 mph 1015.8mb 53f 71f
3:00 3
mph
1015.9mb 53f 73f
2:36 2 3 mph 1016.1mb 53f 73f
2:30 3
mph
1016.1mb 53f 74f
2:24 3
mph
1016.1mb 53f 74f
2:18 2 3 mph 1016.2mb 53f 71f
2:12 2 3 mph 1016.2mb 53f 71f
2:06 3 5 mph 1016.2mb 53f 72f
2:00 3 5 mph 1016.2mb 53f 71f
1:36 2 3 mph 1016.5mb 53f 73f
1:30 2
mph
1016.4mb 53f 73f
1:24 2
mph
1016.5mb 53f 70f
1:18 2 3 mph 1016.6mb 53f 70f
1:12 3 5 mph 1016.6mb 53f 70f
1:06 3 6 mph 1016.6mb 53f 71f
1:00 3 5 mph 1016.7mb 53f 71f
12:36 3 5 mph 1016.9mb 53f 71f
12:30 3
mph
1016.9mb 53f 69f
12:24 2 3 mph 1016.9mb 53f 68f
12:18 2 3 mph 1017mb 53f 67f
12:12 2 5 mph 1017mb 53f 66f
12:06 3 5 mph 1017mb 53f 66f
12:00 3 6 mph 1017mb 53f 66f
11:36 5 7 mph 1016.9mb 54f 65f
11:30 6 7 mph 1016.9mb 54f 65f
11:24 5 6 mph 1017mb 54f 66f
11:18 3 5 mph 1017mb 54f 66f
11:12 3 6 mph 1017.1mb 54f 65f
11:06 3 6 mph 1017.2mb 54f 64f
11:00 5 6 mph 1017.2mb 54f 64f
10:36 11 13 mph 1017.3mb 54f 65f
10:30 10 16 mph 1017.3mb 54f 63f
10:24 11 16 mph 1017.2mb 54f 64f
10:18 13 14 mph 1017.2mb 54f 64f
10:12 11 14 mph 1017.2mb 54f 64f
10:06 10 14 mph 1017.2mb 54f 63f
10:00 9 15 mph 1017.2mb 54f 65f
9:36  -  mph 1017.2mb - -
9:24  -  mph 1017.1mb - -
9:18  -  mph 1017.1mb - -
9:12  -  mph 1017mb - -
9:06  -  mph 1017mb - -
9:00  -  mph 1017mb - -
8:54  -  mph 1017mb - -
8:48  -  mph 1017mb - -
7:36 2 6 mph 1016.9mb 54f 62f
7:30 3 6 mph 1016.8mb 54f 62f
7:24 2 3 mph 1016.7mb 54f 61f
7:18  -  3 mph 1016.6mb 54f 61f
7:12 2 3 mph 1016.5mb 54f 60f
7:06  -  3 mph 1016.5mb 54f 61f
7:00 3 6 mph 1016.4mb 54f 60f
6:54 5 6 mph 1016.3mb 54f 61f
6:48 5 6 mph 1016.2mb 54f 62f
6:36 2 5 mph 1015.9mb 54f 62f
6:30  -  2 mph 1015.9mb 54f 62f
6:24 1 5 mph 1015.9mb 54f 61f
6:18 3 5 mph 1015.9mb 54f 61f
6:12 3
mph
1015.9mb 54f 62f
6:06 2 6 mph 1015.8mb 53f 60f
6:00 3
mph
1015.8mb 53f 59f
5:54 2 3 mph 1015.9mb 54f 59f
5:48 2
mph
1016mb 54f 59f
5:36 2
mph
1015.9mb 54f 59f
5:30 2
mph
1015.9mb 54f 59f
5:24 1 2 mph 1016mb 54f 59f
5:18  -  1 mph 1015.9mb 54f 59f
5:12 1 2 mph 1015.9mb 54f 59f
5:06 2 3 mph 1016mb 54f 59f
5:00  -  1 mph 1016mb 54f 59f
4:54  -  2 mph 1015.9mb 54f 59f
4:48 2
mph
1015.9mb 54f 59f
4:36 2
mph
1015.8mb 54f 60f
4:30 1 2 mph 1015.8mb 54f 60f
4:24 1 2 mph 1015.8mb 54f 60f
4:18 2
mph
1015.9mb 54f 60f
4:12 1 2 mph 1015.8mb 54f 60f
4:06 2 3 mph 1015.7mb 54f 60f
4:00 2 8 mph 1015.6mb 54f 61f
3:54 7 10 mph 1015.5mb 54f 61f
3:48 9 11 mph 1015.5mb 54f 61f
3:36  -  1 mph 1015.4mb 54f 60f
3:30 2
mph
1015.3mb 54f 60f
3:24 1 3 mph 1015.3mb 54f 60f
3:18 2 3 mph 1015.2mb 54f 60f
3:12 1 2 mph 1015.2mb 54f 61f
3:06  -  1 mph 1015.2mb 54f 61f
3:00  -  2 mph 1015.1mb 54f 60f
2:54 1 2 mph 1015mb 54f 60f
2:48 2
mph
1014.9mb 54f 60f
2:36 3 5 mph 1014.9mb 54f 61f
2:30 1 2 mph 1014.9mb 54f 61f
2:24  -  1 mph 1014.9mb 54f 62f
2:18 1 2 mph 1014.8mb 54f 62f
2:12 1 2 mph 1014.8mb 54f 62f
2:06  -  1 mph 1014.7mb 54f 62f
2:00 2 3 mph 1014.7mb 54f 62f
1:54 2 3 mph 1014.8mb 54f 62f
1:48 1 2 mph 1014.9mb 54f 62f
1:36  -  1 mph 1014.9mb 54f 62f
1:30  -  1 mph 1014.9mb 54f 63f
1:24 1
mph
1014.9mb 54f 63f
1:18  -  1 mph 1015mb 54f 63f
1:12 1 2 mph 1015mb 54f 63f
1:06  -  2 mph 1015.1mb 53f 63f
1:00 2 5 mph 1015.1mb 53f 64f
12:54 3 7 mph 1015.1mb 53f 64f
12:48 5 6 mph 1015.1mb 53f 62f
12:36 2 3 mph 1015mb 52f 62f
12:30 3 6 mph 1015mb 52f 62f
12:24 5 6 mph 1015mb 52f 62f
12:18 5 6 mph 1015mb 52f 62f
12:12 3
mph
1015mb 52f 64f
12:06 2 5 mph 1015mb 52f 63f
12:00 5 6 mph 1015mb 52f 62f
mer. 07/01 11:54  -  2 mph 1015mb 52f 64f
11:48  -  2 mph 1015mb 52f 64f
11:36 3 5 mph 1015mb 52f 64f
11:30 5 6 mph 1015.1mb 53f 64f
11:24 6 8 mph 1015.1mb 53f 63f
11:18 6 9 mph 1015.1mb 53f 63f
11:12 8 9 mph 1015.2mb 53f 63f
11:06 8 10 mph 1015.2mb 53f 63f
11:00 9 11 mph 1015.2mb 53f 63f
10:54 9 13 mph 1015.1mb 53f 65f
10:48 11 13 mph 1015.2mb 53f 67f
10:36 8 11 mph 1015.2mb 53f 66f
10:30 8 10 mph 1015.2mb 53f 66f
10:24 9 13 mph 1015.3mb 53f 66f
10:18 11 13 mph 1015.3mb 53f 66f
10:12 8 11 mph 1015.4mb 53f 66f
10:06 7 10 mph 1015.3mb 53f 67f
10:00 10 13 mph 1015.3mb 53f 69f
9:54 11 14 mph 1015.3mb 53f 69f
9:48 13 14 mph 1015.2mb 53f 69f
9:36 9 11 mph 1015.1mb 53f 69f
9:30 11 13 mph 1015mb 53f 70f
9:24 9 10 mph 1015mb 54f 70f
9:18 9 11 mph 1015mb 54f 71f
9:12 9 13 mph 1015mb 54f 71f
9:06 10 13 mph 1015mb 54f 71f
9:00 11 14 mph 1014.9mb 54f 72f
8:54 7 11 mph 1014.9mb 54f 74f
8:48 9 15 mph 1014.9mb 54f 76f
8:36 11 15 mph 1014.9mb 54f 76f
8:30 11 16 mph 1014.9mb 55f 76f
8:24 11 18 mph 1014.9mb 56f 76f
8:18 13 16 mph 1014.9mb 56f 75f
8:12 11 14 mph 1014.9mb 56f 74f
8:06 10 14 mph 1015mb 56f 74f
8:00 10 14 mph 1015mb 56f 74f
7:54 10 13 mph 1015mb 57f 73f
7:48 8 10 mph 1014.9mb 57f 74f
7:36 14 16 mph 1014.9mb 57f 74f
7:30 13 16 mph 1015mb 57f 73f
7:24 14 16 mph 1014.9mb 57f 73f
7:18 13 16 mph 1014.9mb 57f 72f
7:12 16 21 mph 1014.9mb 57f 71f
7:06 16 20 mph 1015mb 57f 72f
7:00 15 17 mph 1015mb 57f 73f
6:54 14 17 mph 1015mb 56f 73f
6:48 17 18 mph 1015mb 56f 74f
6:36 16 18 mph 1015mb 56f 74f
6:30 15 18 mph 1015mb 56f 75f
6:24 15 18 mph 1014.9mb 56f 75f
6:18 14 17 mph 1014.9mb 56f 74f
6:12 15 17 mph 1015mb 56f 73f
6:06 15 17 mph 1015mb 56f 73f
6:00 14 17 mph 1015mb 56f 73f
5:54 14 17 mph 1015.1mb 56f 73f
5:48 15 16 mph 1015.2mb 56f 74f
5:36 15 16 mph 1015.3mb 55f 71f
5:30 15 20 mph 1015.2mb 55f 71f
5:24 18 21 mph 1015.2mb 55f 70f
5:18 16 18 mph 1015.2mb 54f 71f
5:12 18 20 mph 1015.3mb 53f 70f
5:06 18 20 mph 1015.4mb 53f 70f
5:00 17 20 mph 1015.5mb 53f 69f
4:54 16 20 mph 1015.5mb 53f 69f
4:48 17 20 mph 1015.6mb 53f 68f
4:36 17 20 mph 1015.7mb 53f 69f
4:30 17 18 mph 1015.7mb 53f 69f
4:24 14 18 mph 1015.8mb 53f 71f
4:18 2 3 mph 1015.6mb 53f 79f
4:12 3 5 mph 1015.7mb 54f 77f
4:06 3 5 mph 1015.8mb 54f 77f
4:00 5
mph
1015.9mb 54f 75f
3:54 5 6 mph 1015.9mb 54f 75f
3:48 5
mph
1015.9mb 54f 76f
3:36 3 5 mph 1016mb 54f 77f
3:30 3 5 mph 1016mb 54f 77f
3:24 5
mph
1016.1mb 54f 76f
3:18 5
mph
1016.2mb 54f 76f
3:12 3 5 mph 1016.2mb 54f 76f
3:06 3 5 mph 1016.3mb 54f 75f
3:00 3
mph
1016.3mb 54f 75f
2:54 3
mph
1016.4mb 54f 74f
2:48 3
mph
1016.5mb 54f 74f
2:36 5 6 mph 1016.6mb 54f 75f
2:30 6
mph
1016.7mb 54f 74f
2:24 6
mph
1016.7mb 54f 72f
2:18 6
mph
1016.8mb 54f 71f
2:12 6
mph
1016.9mb 54f 71f
2:06 5 6 mph 1016.9mb 54f 71f
2:00 6
mph
1017mb 54f 70f
1:54 5 6 mph 1017mb 55f 71f
1:48 5 6 mph 1017.1mb 55f 70f
1:36 6
mph
1017.3mb 55f 69f
1:30 6 7 mph 1017.3mb 55f 68f
1:24 6 7 mph 1017.4mb 55f 69f
1:18 6 7 mph 1017.5mb 55f 70f
1:12 6 7 mph 1017.5mb 55f 69f
1:06 7
mph
1017.6mb 55f 68f
1:00 6 8 mph 1017.6mb 55f 68f
12:54 7 8 mph 1017.7mb 55f 68f
12:48 6 7 mph 1017.7mb 55f 68f
12:36 7 8 mph 1017.8mb 55f 69f
12:30 7
mph
1017.8mb 55f 68f
12:24 6 7 mph 1017.8mb 55f 68f
12:18 7 8 mph 1017.8mb 55f 68f
12:12 7 8 mph 1017.8mb 55f 67f
12:06 7 9 mph 1017.9mb 54f 68f
12:00 7 9 mph 1017.9mb 54f 69f
11:54 7 9 mph 1017.9mb 54f 69f
11:48 7 8 mph 1017.9mb 54f 69f
11:36 8 9 mph 1018mb 54f 69f
11:30 6 7 mph 1018mb 54f 70f
11:24 6 7 mph 1018.1mb 54f 71f
11:18 6 8 mph 1018.1mb 54f 69f
11:12 7
mph
1018.1mb 54f 69f
11:06 5 7 mph 1018.1mb 54f 68f
11:00 6
mph
1018.2mb 54f 69f
10:54 5 7 mph 1018.2mb 54f 69f
10:48 5 7 mph 1018.2mb 54f 68f
10:36 5 7 mph 1018.2mb 54f 69f
10:30 3 5 mph 1018.2mb 54f 70f
10:24 3 5 mph 1018.3mb 54f 70f
10:18 3 6 mph 1018.3mb 53f 68f
10:12 5 6 mph 1018.3mb 53f 69f
10:06 5 7 mph 1018.3mb 53f 69f
10:00 6 8 mph 1018.3mb 53f 67f
9:54 7 8 mph 1018.4mb 53f 67f
9:48 8 9 mph 1018.4mb 53f 65f
9:36 6
mph
1018.5mb 53f 64f
9:30 6 7 mph 1018.6mb 53f 65f
9:24 6 7 mph 1018.6mb 53f 64f
9:18 5 6 mph 1018.7mb 53f 63f
9:12 6
mph
1018.7mb 53f 63f
9:06 3 6 mph 1018.7mb 53f 64f
9:00 5 6 mph 1018.7mb 53f 62f
8:54 6 7 mph 1018.7mb 53f 61f
8:48 6 7 mph 1018.7mb 53f 62f
8:36 5 6 mph 1018.6mb 53f 62f
8:30 3 5 mph 1018.7mb 53f 62f
8:24 3
mph
1018.6mb 53f 62f
8:18 3 5 mph 1018.6mb 53f 62f
8:12 3
mph
1018.5mb 53f 63f
8:06 2 3 mph 1018.5mb 53f 63f
8:00 1 2 mph 1018.5mb 53f 62f
7:54 2 3 mph 1018.6mb 53f 61f
7:48 3 6 mph 1018.6mb 53f 61f
7:36 3 5 mph 1018.7mb 53f 60f
7:30 3 5 mph 1018.6mb 53f 59f
7:24 3 6 mph 1018.7mb 53f 59f
7:18 3 6 mph 1018.6mb 53f 61f
7:12  -  2 mph 1018.5mb 53f 62f
7:06 2 5 mph 1018.5mb 53f 61f
7:00 3 5 mph 1018.5mb 53f 63f
6:54  -  1 mph 1018.4mb 53f 61f
6:48 1
mph
1018.4mb 53f 61f
6:36 1 2 mph 1018.4mb 53f 59f
6:30 1 2 mph 1018.3mb 53f 58f
6:24  -  1 mph 1018.4mb 53f 59f
6:18 1
mph
1018.3mb 53f 58f
6:12  -  1 mph 1018.3mb 53f 57f
6:06  -  2 mph 1018.3mb 53f 56f
6:00 2
mph
1018.3mb 53f 55f
5:36 2 3 mph 1018mb 53f 55f
5:30 3
mph
1018mb 53f 55f
5:24 2
mph
1018mb 53f 55f
5:18 2
mph
1018.1mb 53f 55f
5:12 2 3 mph 1018mb 53f 55f
5:06 1 2 mph 1018.1mb 53f 56f
5:00 2
mph
1018mb 53f 56f
4:54 2
mph
1018mb 53f 56f
4:48 2
mph
1018mb 53f 56f
4:36 3
mph
1018mb 53f 56f
4:30 3
mph
1018mb 53f 56f
4:24 2 3 mph 1018mb 53f 57f
4:18 1 2 mph 1018mb 53f 57f
4:12 1 2 mph 1017.9mb 53f 57f
4:06 2 3 mph 1017.8mb 53f 57f
4:00 3 5 mph 1017.8mb 53f 57f
3:54 3 5 mph 1017.8mb 53f 57f
3:48 3 5 mph 1017.9mb 53f 57f
3:36 3 5 mph 1017.9mb 53f 58f
3:30 2 3 mph 1018mb 53f 58f
3:24 2 6 mph 1018mb 53f 57f
3:18 2 6 mph 1018mb 53f 57f
3:12 3 5 mph 1018mb 53f 57f
3:06 3 5 mph 1018mb 53f 57f
3:00 3 6 mph 1017.9mb 53f 57f
2:54 2 3 mph 1018mb 53f 57f
2:48 2 3 mph 1018mb 53f 57f
2:36 3 5 mph 1018.1mb 53f 57f
2:30 3 5 mph 1018.1mb 53f 57f
2:24 2 5 mph 1018.2mb 53f 58f
2:18 2 5 mph 1018.2mb 53f 57f
2:12 2 6 mph 1018.3mb 54f 57f
2:06 6 7 mph 1018.3mb 54f 57f
2:00 3 5 mph 1018.3mb 54f 57f
1:54 5 6 mph 1018.3mb 54f 57f
1:48 5 6 mph 1018.3mb 54f 57f
1:36 5
mph
1018.2mb 54f 57f
1:30 3 5 mph 1018.2mb 54f 57f
1:24 2 3 mph 1018.2mb 54f 57f
1:18  -  1 mph 1018.1mb 54f 57f
1:12  -  2 mph 1018.1mb 54f 57f
1:06 2 6 mph 1018.2mb 54f 58f
1:00 6 7 mph 1018.2mb 54f 58f
12:54 5 6 mph 1018.3mb 54f 58f
12:48 2 3 mph 1018.3mb 54f 58f
12:36 5 6 mph 1018.4mb 53f 58f
12:30 2 5 mph 1018.5mb 53f 58f
12:24 2 5 mph 1018.6mb 53f 58f
12:18 2 3 mph 1018.6mb 53f 57f
12:12 2 3 mph 1018.6mb 53f 58f
12:06 3 6 mph 1018.7mb 53f 58f
12:00 6 7 mph 1018.6mb 53f 58f
mar. 06/30 11:54 5 7 mph 1018.7mb 53f 58f
11:48 1 2 mph 1018.6mb 53f 58f
11:36 3 6 mph 1018.7mb 52f 58f
11:30 5 7 mph 1018.7mb 52f 58f
11:24 5 7 mph 1018.6mb 52f 58f
11:18 3 9 mph 1018.8mb 52f 57f
11:12 8 10 mph 1018.7mb 52f 57f
11:06 8 10 mph 1018.9mb 52f 57f
11:00 6 11 mph 1018.9mb 52f 58f
10:54 10 16 mph 1018.5mb 52f 58f
10:48 15 16 mph 1018.5mb 52f 58f
10:36 5 7 mph 1018.7mb 52f 59f
10:30 6 9 mph 1018.5mb 52f 59f
10:24 7 9 mph 1018.2mb 52f 59f
10:18 8 11 mph 1018.1mb 52f 59f
10:12 10 13 mph 1018mb 52f 58f
10:06 13 16 mph 1018mb 52f 58f
10:00 14 17 mph 1018mb 52f 58f
9:54 14 18 mph 1018mb 52f 58f
9:48 16 18 mph 1018mb 52f 58f
9:36 15 17 mph 1017.8mb 52f 59f
9:30 14 15 mph 1017.7mb 52f 60f
9:24 14 16 mph 1017.5mb 52f 59f
9:18 14 16 mph 1017.5mb 52f 59f
9:12 14 17 mph 1017.6mb 52f 59f
9:06 10 14 mph 1017.6mb 52f 59f
9:00 10 14 mph 1017.6mb 53f 59f
8:54 11 15 mph 1017.7mb 53f 59f
8:48 13 15 mph 1017.7mb 53f 59f
8:36 9 11 mph 1017.7mb 53f 59f
8:30 9 11 mph 1017.8mb 54f 58f
8:24 10 14 mph 1017.8mb 54f 57f
8:18 13 18 mph 1017.7mb 54f 57f
8:12 15 20 mph 1017.7mb 54f 56f
8:06 15 21 mph 1017.7mb 54f 56f
8:00 16 22 mph 1017.6mb 54f 56f
7:54 18 23 mph 1017.6mb 55f 56f
7:48 20 26 mph 1017.4mb 54f 57f
7:36 20 26 mph 1017.4mb 55f 58f
7:30 21 24 mph 1017.4mb 55f 59f
7:24 17 22 mph 1017.4mb 55f 60f
7:18 16 22 mph 1017.4mb 55f 61f
7:12 16 21 mph 1017.4mb 55f 61f
7:06 17 21 mph 1017.4mb 55f 62f
7:00 20 22 mph 1017.4mb 55f 62f
6:54 16 21 mph 1017.4mb 55f 62f
6:48 21 25 mph 1017.4mb 55f 61f
6:36 21 23 mph 1017.4mb 55f 61f
6:30 17 23 mph 1017.3mb 55f 62f
6:24 22 25 mph 1017.3mb 55f 62f
6:18 18 22 mph 1017.4mb 55f 64f
6:12 16 18 mph 1017.5mb 55f 63f
6:06 15 23 mph 1017.6mb 55f 61f
6:00 21 24 mph 1017.5mb 55f 62f
5:54 22 25 mph 1017.5mb 55f 62f
5:48 23 28 mph 1017.5mb 55f 62f
5:36 18 22 mph 1017.8mb 55f 62f
5:30 21 23 mph 1017.8mb 55f 62f
5:24 21 24 mph 1017.9mb 55f 62f
5:18 20 24 mph 1017.8mb 55f 62f
5:12 22 25 mph 1017.8mb 55f 62f
5:06 21 24 mph 1017.8mb 55f 62f
5:00 22 24 mph 1017.8mb 55f 64f
4:54 20 23 mph 1017.9mb 55f 65f
4:48 17 23 mph 1018mb 55f 64f
4:36 16 21 mph 1018mb 55f 65f
3:36 20 24 mph 1018.5mb 54f 64f
3:30 18 23 mph 1018.7mb 53f 64f
3:24 18 21 mph 1018.8mb 53f 64f
3:18 18 21 mph 1018.9mb 53f 65f
3:12 16 20 mph 1019mb 54f 65f
3:06 15 17 mph 1019.2mb 54f 65f
3:00 14 17 mph 1019.2mb 54f 63f
2:54 16 18 mph 1019.1mb 54f 64f
2:48 16 21 mph 1019.2mb 54f 64f
2:36 18 22 mph 1019.3mb 54f 63f
2:30 20 23 mph 1019.3mb 54f 62f
2:24 17 20 mph 1019.4mb 54f 61f
2:18 16 20 mph 1019.4mb 54f 63f
2:12 16 21 mph 1019.4mb 54f 65f
2:06 17 20 mph 1019.5mb 54f 65f
2:00 16 18 mph 1019.6mb 54f 65f
1:54 17 18 mph 1019.6mb 54f 65f
1:48 14 18 mph 1019.7mb 54f 63f
1:36 18 21 mph 1019.8mb 54f 63f
1:30 14 16 mph 1019.8mb 54f 61f
1:24 13 18 mph 1019.8mb 54f 59f
1:18 17 20 mph 1019.8mb 54f 60f
1:12 16 20 mph 1019.9mb 54f 59f
1:06 16 18 mph 1019.8mb 54f 58f
1:00 15 18 mph 1019.9mb 54f 58f
12:54 15 20 mph 1019.9mb 53f 60f
12:48 13 17 mph 1019.9mb 53f 61f
12:36 9 13 mph 1019.9mb 53f 61f
12:30 8 10 mph 1019.8mb 53f 60f
12:24 8 11 mph 1019.8mb 53f 60f
12:18 10 15 mph 1019.9mb 53f 60f
12:12 13 15 mph 1019.9mb 53f 58f
12:06 13 15 mph 1020mb 53f 57f
12:00 13 15 mph 1020.1mb 53f 58f
11:54 11 17 mph 1020.1mb 53f 58f
11:48 14 17 mph 1020mb 53f 59f
11:36 13 15 mph 1020.1mb 53f 62f
11:30 10 14 mph 1020.1mb 53f 62f
11:24 10 13 mph 1020.1mb 53f 60f
11:18 8 14 mph 1020mb 53f 60f
11:12 13 15 mph 1020mb 53f 60f
11:06 13 15 mph 1020.1mb 53f 58f
11:00 11 14 mph 1020.1mb 53f 58f
10:54 13 16 mph 1020.1mb 53f 58f
10:48 14 17 mph 1020.2mb 53f 58f
10:36 13 17 mph 1020.2mb 53f 58f
10:30 14 17 mph 1020.1mb 53f 58f
10:24 14 17 mph 1020.1mb 53f 59f
10:18 14 17 mph 1020.1mb 53f 59f
10:12 14 17 mph 1020.1mb 53f 60f
10:06 14 17 mph 1020mb 53f 61f
10:00 14 16 mph 1020mb 53f 61f
9:54 13 15 mph 1019.9mb 53f 60f
9:48 13 15 mph 1019.9mb 53f 60f
9:36 13 15 mph 1019.9mb 53f 61f
9:30 13 15 mph 1019.9mb 53f 61f
9:24 11 15 mph 1019.8mb 53f 60f
9:18 11 14 mph 1019.8mb 53f 60f
9:12 10 13 mph 1019.8mb 53f 59f
9:06 10 13 mph 1019.9mb 53f 58f
9:00 10 13 mph 1019.9mb 54f 57f
8:54 11 14 mph 1019.9mb 54f 57f
8:48 10 13 mph 1019.9mb 54f 57f
8:36 10 13 mph 1019.8mb 54f 57f
8:30 10 11 mph 1019.8mb 54f 57f
8:24 9 11 mph 1019.8mb 54f 57f
8:18 8 11 mph 1019.9mb 54f 56f
8:12 9 13 mph 1019.9mb 54f 56f
8:06 9 13 mph 1019.8mb 54f 57f
8:00 8 10 mph 1019.9mb 54f 57f
7:54 8 11 mph 1020mb 54f 57f
7:48 9 13 mph 1019.9mb 54f 56f
7:36 8 9 mph 1019.9mb 54f 56f
7:30 6 8 mph 1019.9mb 54f 56f
7:24 6 8 mph 1019.9mb 54f 56f
7:18 5 9 mph 1019.9mb 54f 56f
7:12 5 7 mph 1019.8mb 54f 56f
7:06 6 7 mph 1019.7mb 53f 56f
7:00 5 8 mph 1019.7mb 53f 56f
6:54 6 8 mph 1019.8mb 53f 56f
6:48 8 9 mph 1019.8mb 53f 56f
6:36 7 8 mph 1019.6mb 53f 57f
6:30 6 10 mph 1019.6mb 53f 57f
6:24 8 9 mph 1019.6mb 53f 57f
6:18 5 6 mph 1019.5mb 53f 57f
6:12 5 8 mph 1019.4mb 53f 57f
6:06 6 7 mph 1019.3mb 53f 57f
6:00 6 8 mph 1019.2mb 53f 57f
5:54 5 6 mph 1019.2mb 53f 57f
5:48 3 5 mph 1019.1mb 53f 56f
5:36 2 5 mph 1019mb 53f 57f
5:30 5 8 mph 1019.2mb 53f 57f
5:24 7 9 mph 1019.2mb 53f 57f
5:18 5 9 mph 1019.1mb 53f 57f
5:12 8 10 mph 1019.1mb 53f 57f
5:06 9 11 mph 1019mb 53f 57f
5:00 7 9 mph 1019mb 53f 57f
4:54 7 9 mph 1018.9mb 53f 57f
4:48 6 8 mph 1018.7mb 53f 57f
4:36 8 10 mph 1018.5mb 53f 57f
4:30 8 10 mph 1018.4mb 53f 57f
4:24 6 8 mph 1018.3mb 53f 58f
4:18 5 8 mph 1018.3mb 53f 58f
4:12 7 10 mph 1018.5mb 53f 58f
4:06 9 14 mph 1018.5mb 53f 58f
4:00 9 14 mph 1018.6mb 53f 58f
3:54 9 14 mph 1018.6mb 53f 58f
3:48 8 14 mph 1018.6mb 53f 58f
3:36 9 14 mph 1018.6mb 52f 58f
3:30 9 15 mph 1018.6mb 53f 58f
3:24 10 15 mph 1018.6mb 53f 58f
3:18 11 16 mph 1018.6mb 53f 58f
3:12 13 16 mph 1018.6mb 53f 57f
3:06 13 15 mph 1018.6mb 53f 57f
3:00 11 14 mph 1018.5mb 53f 58f
2:54 8 9 mph 1018.6mb 53f 58f
2:48 8 13 mph 1018.6mb 53f 58f
2:36 9 14 mph 1018.5mb 53f 58f
2:30 8 10 mph 1018.5mb 53f 58f
2:24 8 13 mph 1018.6mb 53f 58f
2:18 8 13 mph 1018.7mb 53f 58f
2:12 9 14 mph 1018.6mb 53f 58f
2:06 11 15 mph 1018.5mb 53f 58f
2:00 11 14 mph 1018.4mb 53f 58f
1:54 11 13 mph 1018.3mb 53f 58f
1:48 10 11 mph 1018.2mb 53f 58f
1:36 7 9 mph 1018.2mb 53f 58f
1:30 7 10 mph 1018.2mb 53f 58f
1:24 9 14 mph 1018.1mb 54f 58f
1:18 6 10 mph 1018.1mb 54f 59f
1:12 6 10 mph 1018.1mb 54f 59f
1:06 7 10 mph 1017.9mb 54f 59f
1:00 7 11 mph 1017.9mb 54f 59f
12:54 8 15 mph 1017.9mb 54f 59f
12:48 11 15 mph 1017.8mb 54f 59f
12:36 8 13 mph 1017.8mb 54f 59f
12:30 10 14 mph 1017.8mb 54f 59f
12:24 9 14 mph 1017.7mb 54f 59f
12:18 10 16 mph 1017.7mb 54f 59f
12:12 14 17 mph 1017.5mb 54f 60f
12:06 13 14 mph 1017.6mb 53f 60f
12:00 11 14 mph 1017.6mb 53f 61f
lun. 06/29 11:54 6 8 mph 1017.6mb 53f 61f
11:48 5 7 mph 1017.5mb 52f 61f
11:36 2 3 mph 1017.3mb 51f 61f
11:30 1 5 mph 1017.3mb 51f 61f
11:24 2 5 mph 1017.3mb 51f 61f
11:18 3 9 mph 1017.1mb 51f 61f
11:12 5 11 mph 1017.1mb 51f 60f
11:06 11 15 mph 1017.2mb 51f 60f
11:00 6 10 mph 1017.2mb 51f 62f
10:54 2 5 mph 1017.2mb 51f 62f
10:48 2 7 mph 1017.1mb 51f 63f
10:36 5 14 mph 1017mb 50f 63f
10:30 6 10 mph 1017mb 50f 63f
10:24 10 20 mph 1016.9mb 50f 63f
10:18 13 20 mph 1016.7mb 50f 63f
10:12 13 20 mph 1016.7mb 50f 63f
10:06 14 18 mph 1016.6mb 50f 64f
10:00 10 16 mph 1016.6mb 50f 63f
9:54 14 18 mph 1016.6mb 50f 64f
9:48 10 17 mph 1016.5mb 50f 64f
9:36 9 17 mph 1016.5mb 51f 64f
9:30 7 11 mph 1016.5mb 51f 64f
9:24 5 10 mph 1016.4mb 51f 64f
9:18 5 11 mph 1016.3mb 50f 64f
9:12 6 10 mph 1016.3mb 50f 64f
9:06 7 16 mph 1016.2mb 51f 64f
9:00 7 13 mph 1016.1mb 51f 64f
8:54 13 17 mph 1016mb 51f 64f
8:48 10 15 mph 1016mb 51f 64f
8:36 11 16 mph 1015.9mb 52f 65f
8:30 9 17 mph 1015.9mb 53f 65f
8:24 11 17 mph 1015.8mb 53f 65f
8:18 10 18 mph 1015.8mb 53f 65f
8:12 15 22 mph 1015.7mb 53f 65f
8:06 14 18 mph 1015.6mb 54f 65f
8:00 13 20 mph 1015.5mb 54f 64f
7:54 14 18 mph 1015.5mb 54f 64f
7:48 13 18 mph 1015.5mb 54f 65f
7:36 16 20 mph 1015.5mb 55f 65f
7:30 14 18 mph 1015.5mb 55f 67f
7:24 14 17 mph 1015.5mb 55f 66f
7:18 14 18 mph 1015.5mb 55f 65f
7:12 10 20 mph 1015.6mb 55f 66f
7:06 16 21 mph 1015.5mb 55f 67f
7:00 14 18 mph 1015.5mb 55f 66f
6:54 17 23 mph 1015.5mb 55f 67f
6:48 17 22 mph 1015.4mb 55f 67f
6:36 20 24 mph 1015.5mb 56f 66f
6:30 21 24 mph 1015.4mb 55f 68f
6:24 21 25 mph 1015.4mb 55f 68f
6:18 20 22 mph 1015.3mb 56f 68f
6:12 18 22 mph 1015.4mb 56f 70f
6:06 17 22 mph 1015.3mb 56f 68f
6:00 16 22 mph 1015.3mb 56f 68f
5:54 17 20 mph 1015.3mb 56f 68f
5:48 16 21 mph 1015.3mb 56f 67f
5:36 14 20 mph 1015.5mb 55f 67f
5:30 15 20 mph 1015.6mb 55f 66f
5:24 14 23 mph 1015.6mb 55f 65f
5:18 17 23 mph 1015.6mb 55f 66f
5:12 17 22 mph 1015.7mb 55f 66f
5:06 16 22 mph 1015.7mb 55f 66f
5:00 20 23 mph 1015.6mb 55f 67f
4:54 18 22 mph 1015.6mb 55f 66f